Time;durP1;ratioP1;P1;durP2;ratioP2;P2;SDS_P1;SDS_P2;PMS_P1;PMS_P2;Temp;Humidity;BMP_temperature;BMP_pressure;BME280_temperature;BME280_humidity;BME280_pressure;Samples;Min_cycle;Max_cycle;Signal;HPM_P1;HPM_P2
2022/03/12 00:02:04;;;;;;;8.33;5.43;;;12.10;5.60;;;;;;6197569;23;20161;-94
2022/03/12 00:05:05;;;;;;;6.40;5.70;;;12.00;5.50;;;;;;6166803;23;20204;-93
2022/03/12 00:07:46;;;;;;;7.57;5.83;;;12.20;5.00;;;;;;6202440;23;20160;-93
2022/03/12 00:10:32;;;;;;;7.90;5.67;;;12.00;2.90;;;;;;6180764;23;20157;-93
2022/03/12 00:13:07;;;;;;;8.70;5.73;;;12.00;4.50;;;;;;6203112;23;20166;-93
2022/03/12 00:15:41;;;;;;;8.70;6.07;;;12.10;1.90;;;;;;6171289;23;20145;-93
2022/03/12 00:18:22;;;;;;;6.17;5.33;;;12.10;1.00;;;;;;6172056;23;20150;-93
2022/03/12 00:21:08;;;;;;;7.20;6.23;;;12.10;1.00;;;;;;6189019;23;20168;-93
2022/03/12 00:23:50;;;;;;;6.37;4.87;;;12.00;1.00;;;;;;6171060;23;20133;-93
2022/03/12 00:26:21;;;;;;;7.53;5.33;;;12.00;1.00;;;;;;6187950;23;20137;-93
2022/03/12 00:28:56;;;;;;;7.73;5.50;;;11.90;1.00;;;;;;6188101;23;20142;-94
2022/03/12 00:32:24;;;;;;;;;;;;;;;;;;;;;
2022/03/12 00:34:24;;;;;;;6.97;5.00;;;11.80;1.00;;;;;;6178082;23;20212;-93
2022/03/12 00:37:00;;;;;;;6.73;5.37;;;11.90;1.00;;;;;;6173242;23;20162;-94
2022/03/12 00:39:37;;;;;;;5.73;5.07;;;11.90;1.00;;;;;;6174566;23;20509;-94
2022/03/12 00:42:08;;;;;;;6.00;4.60;;;11.90;1.00;;;;;;6170667;23;20153;-94
2022/03/12 00:44:42;;;;;;;5.87;4.87;;;11.80;1.00;;;;;;6186632;23;20170;-92
2022/03/12 00:47:23;;;;;;;8.87;5.33;;;11.80;1.00;;;;;;6177990;23;20524;-92
2022/03/12 00:50:06;;;;;;;6.10;4.60;;;11.70;1.00;;;;;;6147470;23;20174;-92
2022/03/12 00:52:48;;;;;;;5.60;4.67;;;11.70;1.00;;;;;;6197541;23;20181;-93
2022/03/12 00:55:27;;;;;;;6.23;4.40;;;11.60;1.00;;;;;;6183057;23;20180;-92
2022/03/12 00:58:07;;;;;;;5.00;3.80;;;11.60;1.00;;;;;;6163971;23;20148;-92
2022/03/12 01:00:49;;;;;;;4.40;3.87;;;11.60;1.00;;;;;;6189719;23;20145;-93
2022/03/12 01:03:58;;;;;;;4.77;3.83;;;11.60;1.00;;;;;;6206015;23;20158;-93
2022/03/12 01:06:32;;;;;;;4.80;4.20;;;11.60;1.00;;;;;;6172711;23;20181;-94
2022/03/12 01:09:21;;;;;;;5.10;4.07;;;11.50;1.00;;;;;;6145664;23;20610;-94
2022/03/12 01:12:26;;;;;;;4.23;3.83;;;11.50;1.00;;;;;;6197700;23;20505;-94
2022/03/12 01:15:11;;;;;;;5.07;4.17;;;11.50;1.00;;;;;;6144865;23;20186;-93
2022/03/12 01:21:47;;;;;;;5.27;3.63;;;11.60;1.00;;;;;;6215007;23;20197;-93
2022/03/12 01:24:37;;;;;;;4.77;3.27;;;11.50;1.00;;;;;;6171239;23;20149;-93
2022/03/12 01:27:46;;;;;;;;;;;;;;;;;;;;;
2022/03/12 01:31:01;;;;;;;3.50;3.10;;;11.50;1.00;;;;;;6199963;23;20161;-93
2022/03/12 01:37:54;;;;;;;4.03;3.07;;;11.50;1.00;;;;;;6214559;23;20152;-93
2022/03/12 01:41:02;;;;;;;4.57;3.50;;;11.50;1.00;;;;;;6171698;23;20153;-91
2022/03/12 01:44:01;;;;;;;4.67;3.00;;;11.50;1.00;;;;;;6194204;23;20153;-91
2022/03/12 01:53:43;;;;;;;;;;;;;;;;;;;;;
2022/03/12 01:56:53;;;;;;;3.53;2.53;;;11.50;1.00;;;;;;6136032;23;20217;-93
2022/03/12 02:00:12;;;;;;;;;;;;;;;;;;;;;
2022/03/12 02:04:29;;;;;;;;;;;;;;;;;;;;;
2022/03/12 02:06:49;;;;;;;3.90;2.87;;;11.40;1.00;;;;;;6167760;23;20165;-94
2022/03/12 02:09:37;;;;;;;3.97;3.00;;;11.40;1.00;;;;;;6183349;23;20145;-93
2022/03/12 02:12:44;;;;;;;4.10;2.80;;;11.40;1.00;;;;;;6159177;23;20193;-93
2022/03/12 02:15:13;;;;;;;4.37;3.27;;;11.50;1.00;;;;;;6186211;23;20176;-93
2022/03/12 02:21:18;;;;;;;5.20;3.30;;;11.40;1.00;;;;;;6209965;23;20164;-93
2022/03/12 02:28:13;;;;;;;;;;;;;;;;;;;;;
2022/03/12 02:35:11;;;;;;;5.63;3.70;;;11.30;1.00;;;;;;6192673;23;20169;-93
2022/03/12 02:41:15;;;;;;;4.43;3.67;;;11.40;1.00;;;;;;6003294;23;20214;-94
2022/03/12 02:44:13;;;;;;;;;;;;;;;;;;;;;
2022/03/12 02:51:09;;;;;;;5.00;4.00;;;11.40;1.00;;;;;;5958015;24;20199;-93
2022/03/12 02:54:35;;;;;;;;;;;;;;;;;;;;;
2022/03/12 02:58:03;;;;;;;4.20;3.57;;;11.30;1.00;;;;;;6065240;23;20160;-92
2022/03/12 03:01:15;;;;;;;;;;;;;;;;;;;;;
2022/03/12 03:07:48;;;;;;;;;;;;;;;;;;;;;
2022/03/12 03:11:35;;;;;;;;;;;;;;;;;;;;;
2022/03/12 03:13:52;;;;;;;5.20;3.80;;;11.20;1.00;;;;;;6073807;23;20183;-95
2022/03/12 03:17:07;;;;;;;6.23;4.57;;;11.20;1.00;;;;;;6074566;23;20179;-93
2022/03/12 03:20:41;;;;;;;;;;;;;;;;;;;;;
2022/03/12 03:23:41;;;;;;;5.47;4.43;;;11.20;1.00;;;;;;6148217;23;20241;-92
2022/03/12 03:26:37;;;;;;;4.90;3.60;;;11.20;1.00;;;;;;6135728;23;20210;-92
2022/03/12 03:29:58;;;;;;;5.10;4.20;;;11.20;1.00;;;;;;6162607;23;20172;-92
2022/03/12 03:36:18;;;;;;;5.33;3.90;;;11.20;3.10;;;;;;6192993;23;20165;-93
2022/03/12 03:42:37;;;;;;;;;;;;;;;;;;;;;
2022/03/12 03:45:27;;;;;;;5.23;4.03;;;11.10;10.30;;;;;;6209239;23;20193;-93
2022/03/12 03:51:56;;;;;;;5.77;4.50;;;11.10;10.90;;;;;;6191743;23;20652;-95
2022/03/12 03:55:51;;;;;;;5.93;4.17;;;11.10;10.30;;;;;;6157603;23;20665;-93
2022/03/12 03:58:37;;;;;;;;;;;;;;;;;;;;;
2022/03/12 04:01:41;;;;;;;5.67;3.87;;;11.20;4.40;;;;;;6192008;23;20180;-92
2022/03/12 04:04:40;;;;;;;6.13;4.50;;;11.20;3.90;;;;;;6165720;23;20149;-95
2022/03/12 04:07:27;;;;;;;5.87;4.40;;;11.20;1.60;;;;;;6163090;23;20474;-93
2022/03/12 04:10:46;;;;;;;;;;;;;;;;;;;;;
2022/03/12 04:14:17;;;;;;;6.13;4.00;;;11.10;1.00;;;;;;6186113;23;20197;-94
2022/03/12 04:17:12;;;;;;;5.13;3.73;;;11.20;1.00;;;;;;6187704;23;20184;-93
2022/03/12 04:20:39;;;;;;;5.80;3.97;;;11.20;1.00;;;;;;6162945;23;20181;-94
2022/03/12 04:23:47;;;;;;;7.00;3.70;;;11.10;1.00;;;;;;6190409;23;20613;-93
2022/03/12 04:26:40;;;;;;;5.07;4.13;;;11.10;1.00;;;;;;6161239;23;20673;-94
2022/03/12 04:33:38;;;;;;;6.20;3.33;;;11.10;1.00;;;;;;5929856;24;20203;-93
2022/03/12 04:42:50;;;;;;;7.03;3.73;;;11.10;1.00;;;;;;6040842;23;20172;-93
2022/03/12 04:45:36;;;;;;;5.77;3.40;;;11.10;1.00;;;;;;5992213;23;20168;-92
2022/03/12 04:48:55;;;;;;;6.40;3.80;;;11.10;1.00;;;;;;6043793;23;20165;-94
2022/03/12 04:52:22;;;;;;;;;;;;;;;;;;;;;
2022/03/12 04:55:10;;;;;;;4.97;3.40;;;11.10;1.00;;;;;;6031128;23;20164;-92
2022/03/12 04:58:24;;;;;;;9.07;5.50;;;11.00;1.00;;;;;;5943068;23;20200;-93
2022/03/12 05:01:42;;;;;;;6.63;3.57;;;11.00;1.00;;;;;;6159864;23;20221;-92
2022/03/12 05:05:11;;;;;;;6.73;3.60;;;10.90;1.00;;;;;;6191100;23;20168;-93
2022/03/12 05:08:13;;;;;;;6.00;3.47;;;10.80;2.60;;;;;;6188329;23;20154;-92
2022/03/12 05:11:00;;;;;;;5.77;3.13;;;10.80;1.00;;;;;;6146613;23;20224;-93
2022/03/12 05:13:55;;;;;;;6.47;3.70;;;10.80;1.00;;;;;;6172632;23;20173;-93
2022/03/12 05:16:49;;;;;;;7.90;3.60;;;10.80;1.00;;;;;;6201688;23;20161;-93
2022/03/12 05:20:12;;;;;;;6.70;3.73;;;10.70;1.00;;;;;;6194582;23;20181;-93
2022/03/12 05:23:12;;;;;;;6.33;3.03;;;10.80;1.00;;;;;;6171932;23;20158;-94
2022/03/12 05:32:45;;;;;;;5.13;3.27;;;10.70;1.00;;;;;;6018434;23;20192;-90
2022/03/12 05:43:26;;;;;;;5.60;2.97;;;10.50;1.00;;;;;;6003396;23;20177;-94
2022/03/12 05:49:50;;;;;;;5.30;3.20;;;10.50;1.00;;;;;;6000785;24;20161;-94
2022/03/12 06:00:21;;;;;;;;;;;;;;;;;;;;;
2022/03/12 06:13:35;;;;;;;7.53;3.40;;;10.40;1.00;;;;;;5709335;25;20224;-94
2022/03/12 06:20:38;;;;;;;;;;;;;;;;;;;;;
2022/03/12 06:27:29;;;;;;;;;;;;;;;;;;;;;
2022/03/12 06:31:17;;;;;;;;;;;;;;;;;;;;;
2022/03/12 06:34:11;;;;;;;6.50;3.83;;;10.50;1.00;;;;;;6055207;23;20159;-93
2022/03/12 06:37:23;;;;;;;5.73;3.50;;;10.50;1.00;;;;;;6096920;23;20159;-92
2022/03/12 06:40:49;;;;;;;;;;;;;;;;;;;;;
2022/03/12 06:44:30;;;;;;;;;;;;;;;;;;;;;
2022/03/12 06:50:47;;;;;;;4.63;3.03;;;10.50;1.00;;;;;;6018614;23;20778;-94
2022/03/12 06:54:02;;;;;;;6.30;3.10;;;10.50;1.00;;;;;;6024629;23;20257;-94
2022/03/12 06:57:13;;;;;;;8.23;3.27;;;10.60;1.00;;;;;;5987628;23;20165;-94
2022/03/12 07:07:03;;;;;;;;;;;;;;;;;;;;;
2022/03/12 07:09:59;;;;;;;7.57;4.07;;;10.60;1.00;;;;;;6019388;23;20189;-94
2022/03/12 07:13:37;;;;;;;7.30;3.57;;;10.60;1.00;;;;;;6040198;23;20230;-94
2022/03/12 07:17:01;;;;;;;7.53;3.63;;;10.70;1.00;;;;;;6120721;23;20163;-93
2022/03/12 07:20:21;;;;;;;;;;;;;;;;;;;;;
2022/03/12 07:23:20;;;;;;;7.03;3.50;;;10.70;1.00;;;;;;6173822;23;20165;-93
2022/03/12 07:26:35;;;;;;;6.50;4.23;;;10.80;1.00;;;;;;6173448;23;20610;-94
2022/03/12 07:29:45;;;;;;;8.87;3.53;;;10.80;1.00;;;;;;6169492;23;20162;-93
2022/03/12 07:36:11;;;;;;;7.37;3.37;;;11.00;1.00;;;;;;6202399;23;20200;-93
2022/03/12 07:39:27;;;;;;;7.67;3.30;;;11.00;1.00;;;;;;6175547;23;20158;-92
2022/03/12 07:42:37;;;;;;;7.40;3.13;;;11.00;1.00;;;;;;6198813;23;20606;-94
2022/03/12 07:48:47;;;;;;;7.83;3.60;;;11.10;1.00;;;;;;6183021;23;20173;-94
2022/03/12 07:58:49;;;;;;;7.30;3.37;;;11.00;1.00;;;;;;6214108;23;20188;-93
2022/03/12 08:01:59;;;;;;;;;;;;;;;;;;;;;
2022/03/12 08:05:23;;;;;;;;;;;;;;;;;;;;;
2022/03/12 08:08:12;;;;;;;7.93;3.60;;;11.20;1.00;;;;;;6143703;23;20199;-91
2022/03/12 08:24:20;;;;;;;;;;;;;;;;;;;;;
2022/03/12 08:27:36;;;;;;;;;;;;;;;;;;;;;
2022/03/12 08:30:50;;;;;;;8.80;3.40;;;11.50;1.00;;;;;;6148891;23;20184;-94
2022/03/12 08:33:38;;;;;;;6.10;2.87;;;11.50;1.00;;;;;;6204641;23;20178;-90
2022/03/12 08:50:13;;;;;;;8.23;3.40;;;11.70;1.00;;;;;;6088813;23;20227;-88
2022/03/12 08:52:47;;;;;;;7.80;3.07;;;11.60;1.00;;;;;;6133030;23;20193;-88
2022/03/12 08:55:25;;;;;;;8.50;3.50;;;11.70;1.00;;;;;;6179773;23;20184;-90
2022/03/12 08:58:38;;;;;;;9.93;3.27;;;11.80;1.00;;;;;;6188280;23;20154;-89
2022/03/12 09:01:59;;;;;;;7.93;3.00;;;11.90;1.00;;;;;;6202496;23;20172;-90
2022/03/12 09:08:15;;;;;;;6.97;3.20;;;12.10;99.90;;;;;;6203023;23;20149;-90
2022/03/12 09:11:10;;;;;;;11.97;3.07;;;12.00;99.90;;;;;;6199879;23;20145;-90
2022/03/12 09:14:06;;;;;;;12.60;6.97;;;11.90;99.90;;;;;;6197465;23;20157;-89
2022/03/12 09:16:47;;;;;;;7.33;3.53;;;12.10;99.90;;;;;;6177243;23;20192;-90
2022/03/12 09:20:27;;;;;;;5.83;3.03;;;12.50;99.90;;;;;;6197792;23;20204;-89
2022/03/12 09:23:17;;;;;;;6.40;3.80;;;12.70;1.00;;;;;;6077732;23;20503;-89
2022/03/12 09:25:51;;;;;;;9.10;3.47;;;12.60;99.90;;;;;;6054321;23;20168;-89
2022/03/12 09:28:40;;;;;;;8.10;3.40;;;12.60;1.00;;;;;;6156890;23;20197;-90
2022/03/12 09:31:52;;;;;;;12.10;3.50;;;12.60;60.80;;;;;;6196414;23;20185;-89
2022/03/12 09:34:35;;;;;;;7.63;2.87;;;12.70;1.00;;;;;;6173454;23;20158;-90
2022/03/12 09:40:40;;;;;;;7.33;2.70;;;12.80;1.00;;;;;;6199166;23;20192;-88
2022/03/12 09:43:46;;;;;;;6.23;2.87;;;12.90;1.00;;;;;;6196385;23;20169;-91
2022/03/12 09:46:34;;;;;;;5.77;2.80;;;13.00;99.90;;;;;;6146141;23;20227;-90
2022/03/12 09:49:14;;;;;;;9.17;2.70;;;13.20;1.00;;;;;;6175189;23;20154;-90
2022/03/12 09:55:27;;;;;;;8.13;2.90;;;13.30;1.00;;;;;;6100940;23;20485;-91
2022/03/12 09:58:44;;;;;;;10.60;3.10;;;13.20;1.00;;;;;;6056779;23;20609;-91
2022/03/12 10:01:24;;;;;;;5.57;2.93;;;13.40;99.90;;;;;;6082648;23;20147;-90
2022/03/12 10:07:42;;;;;;;8.63;3.20;;;13.80;1.00;;;;;;6007834;23;20151;-89
2022/03/12 10:11:02;;;;;;;6.13;2.53;;;13.80;1.00;;;;;;6051768;23;20161;-90
2022/03/12 10:14:10;;;;;;;6.83;2.10;;;13.80;1.00;;;;;;6116466;23;20197;-90
2022/03/12 10:20:07;;;;;;;7.80;2.50;;;13.90;1.00;;;;;;6111848;23;20191;-91
2022/03/12 10:22:55;;;;;;;4.53;2.43;;;14.00;1.00;;;;;;6087022;23;20227;-90
2022/03/12 10:26:09;;;;;;;8.40;2.90;;;13.90;1.00;;;;;;6107739;23;20161;-90
2022/03/12 10:29:13;;;;;;;5.53;2.33;;;13.80;1.00;;;;;;6110597;23;20173;-89
2022/03/12 10:35:23;;;;;;;4.73;2.27;;;13.50;37.10;;;;;;6205411;23;20175;-91
2022/03/12 10:38:03;;;;;;;6.20;2.83;;;14.00;1.00;;;;;;6175315;23;20151;-89
2022/03/12 10:40:45;;;;;;;5.60;2.50;;;14.30;1.00;;;;;;6198870;23;20214;-89
2022/03/12 10:47:00;;;;;;;7.10;2.50;;;14.10;1.00;;;;;;6108407;23;20528;-91
2022/03/12 10:50:37;;;;;;;6.33;2.93;;;14.20;1.00;;;;;;6081995;23;20158;-90
2022/03/12 10:57:15;;;;;;;7.17;2.53;;;14.20;1.00;;;;;;6111266;23;20206;-89
2022/03/12 11:00:35;;;;;;;6.17;2.77;;;14.50;99.90;;;;;;6087732;23;20248;-89
2022/03/12 11:03:54;;;;;;;8.37;2.60;;;14.70;86.40;;;;;;6139279;23;20161;-90
2022/03/12 11:06:41;;;;;;;6.87;2.70;;;14.60;1.00;;;;;;6135757;23;20154;-90
2022/03/12 11:09:39;;;;;;;6.77;2.53;;;14.50;20.70;;;;;;6205027;23;20155;-90
2022/03/12 11:13:01;;;;;;;8.10;1.93;;;14.50;1.00;;;;;;6173536;23;20533;-91
2022/03/12 11:19:40;;;;;;;7.70;2.27;;;14.80;1.00;;;;;;6137129;23;20168;-90
2022/03/12 11:22:59;;;;;;;7.67;2.00;;;14.90;1.00;;;;;;6121366;23;20154;-90
2022/03/12 11:25:39;;;;;;;8.90;2.27;;;14.80;1.00;;;;;;6088609;23;20165;-89
2022/03/12 11:29:13;;;;;;;;;;;;;;;;;;;;;
2022/03/12 11:32:26;;;;;;;6.60;2.53;;;14.90;99.90;;;;;;6049499;23;20227;-90
2022/03/12 11:35:55;;;;;;;5.87;1.90;;;15.00;99.90;;;;;;5981955;24;20164;-90
2022/03/12 11:39:14;;;;;;;9.63;2.77;;;15.00;99.90;;;;;;5967614;24;20527;-90
2022/03/12 11:42:23;;;;;;;7.10;2.20;;;15.10;99.90;;;;;;6003537;23;20174;-90
2022/03/12 11:44:55;;;;;;;5.63;2.00;;;15.30;99.90;;;;;;6001617;23;20165;-93
2022/03/12 11:47:40;;;;;;;7.30;2.33;;;15.40;99.90;;;;;;6057331;23;20155;-93
2022/03/12 11:50:14;;;;;;;8.87;2.40;;;15.60;99.90;;;;;;6024630;23;20153;-93
2022/03/12 11:52:49;;;;;;;6.67;2.10;;;15.80;99.90;;;;;;6049760;23;20181;-95
2022/03/12 11:55:27;;;;;;;8.30;2.07;;;15.80;29.90;;;;;;6114442;23;20161;-93
2022/03/12 11:58:02;;;;;;;8.83;2.00;;;15.70;12.60;;;;;;6179245;23;20130;-92
2022/03/12 12:00:34;;;;;;;7.57;1.93;;;15.50;40.00;;;;;;6184843;23;20164;-96
2022/03/12 12:03:24;;;;;;;8.20;2.17;;;15.50;92.20;;;;;;6208553;23;20165;-96
2022/03/12 12:05:52;;;;;;;8.23;2.07;;;15.60;99.90;;;;;;6178170;23;20252;-95
2022/03/12 12:08:46;;;;;;;7.57;2.23;;;15.30;99.90;;;;;;6208352;23;20125;-88
2022/03/12 12:11:23;;;;;;;7.40;2.10;;;15.30;99.90;;;;;;6182950;23;20162;-92
2022/03/12 12:14:47;;;;;;;7.30;2.40;;;15.30;99.90;;;;;;6159952;23;20145;-91
2022/03/12 12:18:03;;;;;;;5.40;1.93;;;15.40;99.90;;;;;;6184861;23;20193;-90
2022/03/12 12:20:54;;;;;;;7.80;2.03;;;15.40;99.90;;;;;;6186262;23;20231;-91
2022/03/12 12:23:49;;;;;;;7.77;2.20;;;15.50;99.90;;;;;;6186590;23;20165;-91
2022/03/12 12:36:26;;;;;;;8.03;2.37;;;16.20;1.00;;;;;;6212762;23;20244;-90
2022/03/12 12:39:24;;;;;;;9.83;2.50;;;16.20;16.30;;;;;;6187398;23;20142;-89
2022/03/12 12:52:00;;;;;;;9.17;2.33;;;16.10;1.00;;;;;;6212773;23;20225;-87
2022/03/12 12:57:56;;;;;;;7.90;2.23;;;16.00;1.00;;;;;;6212681;23;20145;-94
2022/03/12 13:00:47;;;;;;;8.13;1.83;;;16.20;1.00;;;;;;6184784;23;20169;-89
2022/03/12 13:03:23;;;;;;;10.73;2.50;;;16.30;1.00;;;;;;6209578;23;20157;-88
2022/03/12 13:09:57;;;;;;;7.23;2.23;;;16.40;1.00;;;;;;6210481;23;20133;-87
2022/03/12 13:15:59;;;;;;;6.27;2.27;;;16.30;1.00;;;;;;6212948;23;20386;-96
2022/03/12 13:18:47;;;;;;;10.10;2.40;;;16.20;1.00;;;;;;6183880;23;20154;-91
2022/03/12 13:22:05;;;;;;;6.43;2.33;;;16.10;1.00;;;;;;6177759;23;20142;-89
2022/03/12 13:25:09;;;;;;;7.67;2.10;;;16.00;1.00;;;;;;6173495;23;20156;-91
2022/03/12 13:28:15;;;;;;;8.23;2.43;;;15.90;1.00;;;;;;6209234;23;20229;-89
2022/03/12 13:31:39;;;;;;;6.43;2.20;;;15.90;1.00;;;;;;6210132;23;20150;-91
2022/03/12 13:34:29;;;;;;;9.57;2.50;;;15.70;1.00;;;;;;6180992;23;20166;-93
2022/03/12 13:37:15;;;;;;;9.37;2.63;;;15.80;21.60;;;;;;6178774;23;20154;-90
2022/03/12 13:40:09;;;;;;;7.37;2.80;;;15.90;37.20;;;;;;6183547;23;20209;-91
2022/03/12 13:42:56;;;;;;;7.07;2.33;;;16.00;1.00;;;;;;6186234;23;20205;-89
2022/03/12 13:45:42;;;;;;;8.30;2.57;;;16.00;1.00;;;;;;6210463;23;20150;-90
2022/03/12 13:48:30;;;;;;;7.63;2.33;;;16.30;1.00;;;;;;6187064;23;20221;-89
2022/03/12 13:51:06;;;;;;;5.03;2.10;;;16.40;1.00;;;;;;6165401;23;20219;-93
2022/03/12 13:53:39;;;;;;;9.47;2.20;;;16.30;1.00;;;;;;6156321;23;20192;-94
2022/03/12 13:56:20;;;;;;;6.30;2.20;;;16.40;1.00;;;;;;6181670;23;20138;-93
2022/03/12 13:58:52;;;;;;;11.70;2.73;;;16.40;14.70;;;;;;6183313;23;20150;-92
2022/03/12 14:05:38;;;;;;;9.50;3.30;;;16.60;13.80;;;;;;6210898;23;20181;-91
2022/03/12 14:08:29;;;;;;;10.60;3.53;;;16.90;1.00;;;;;;6211508;23;20157;-92
2022/03/12 14:11:41;;;;;;;8.47;2.93;;;16.80;1.00;;;;;;6185250;23;20190;-92
2022/03/12 14:14:14;;;;;;;8.67;2.77;;;16.70;1.00;;;;;;6185173;23;20159;-91
2022/03/12 14:17:15;;;;;;;7.37;2.37;;;16.50;1.00;;;;;;6205111;23;20195;-92
2022/03/12 14:20:30;;;;;;;6.10;2.40;;;16.40;1.00;;;;;;6182110;23;20181;-93
2022/03/12 14:26:23;;;;;;;9.07;3.40;;;16.30;83.70;;;;;;6211329;23;20162;-92
2022/03/12 14:32:15;;;;;;;7.90;3.17;;;16.10;99.90;;;;;;6212117;23;20200;-92
2022/03/12 14:38:05;;;;;;;7.93;3.33;;;16.20;99.90;;;;;;6211098;23;20206;-92
2022/03/12 14:40:47;;;;;;;9.47;3.27;;;16.20;99.90;;;;;;6212491;23;20202;-91
2022/03/12 14:46:07;;;;;;;7.80;3.30;;;16.40;99.90;;;;;;5656170;22;12660008;-91
2022/03/12 14:48:44;;;;;;;6.57;3.07;;;16.80;99.70;;;;;;6214612;22;20130;-90
2022/03/12 14:52:04;;;;;;;8.83;3.00;;;16.80;18.20;;;;;;6208057;22;20590;-90
2022/03/12 14:55:09;;;;;;;7.53;3.53;;;16.70;1.00;;;;;;6175676;22;20188;-90
2022/03/12 14:58:07;;;;;;;6.50;3.10;;;16.70;1.00;;;;;;6185742;22;20146;-91
2022/03/12 15:01:05;;;;;;;8.60;3.03;;;16.70;1.00;;;;;;6207529;23;20129;-92
2022/03/12 15:03:53;;;;;;;6.33;2.80;;;16.50;1.00;;;;;;6169291;23;20587;-91
2022/03/12 15:09:49;;;;;;;9.47;4.77;;;16.50;12.60;;;;;;6201912;23;20145;-90
2022/03/12 15:12:17;;;;;;;9.17;4.13;;;16.40;1.00;;;;;;6175288;23;20193;-91
2022/03/12 15:14:45;;;;;;;7.77;4.20;;;16.40;1.00;;;;;;6200093;23;20161;-90
2022/03/12 15:17:24;;;;;;;9.53;4.20;;;16.30;1.00;;;;;;6177541;23;20154;-91
2022/03/12 15:23:42;;;;;;;6.33;2.73;;;16.10;1.00;;;;;;6198774;23;20146;-90
2022/03/12 15:26:39;;;;;;;6.93;3.10;;;16.00;8.70;;;;;;6204112;23;20217;-91
2022/03/12 15:29:09;;;;;;;6.87;3.30;;;15.90;39.60;;;;;;6183922;23;20201;-89
2022/03/12 15:34:57;;;;;;;6.40;3.03;;;16.00;66.50;;;;;;6182199;22;20212;-90
2022/03/12 15:38:04;;;;;;;6.70;3.60;;;16.00;27.50;;;;;;6144368;23;20193;-91
2022/03/12 15:40:58;;;;;;;7.73;3.17;;;16.00;48.40;;;;;;6167701;23;20169;-91
2022/03/12 15:43:30;;;;;;;7.43;3.60;;;16.00;19.20;;;;;;6158857;23;20194;-90
2022/03/12 15:46:08;;;;;;;8.33;3.10;;;15.90;19.10;;;;;;6165318;23;20212;-90
2022/03/12 15:49:08;;;;;;;7.13;3.17;;;15.80;31.90;;;;;;6170458;23;20150;-90
2022/03/12 15:51:34;;;;;;;7.30;3.37;;;15.80;36.70;;;;;;6179543;23;20192;-90
2022/03/12 15:54:00;;;;;;;9.80;4.00;;;15.70;92.10;;;;;;6184400;22;20158;-90
2022/03/12 15:56:36;;;;;;;6.80;4.03;;;15.70;92.50;;;;;;6157006;23;20158;-90
2022/03/12 15:59:14;;;;;;;9.00;3.70;;;15.80;37.10;;;;;;6179180;23;20151;-89
2022/03/12 16:09:35;;;;;;;8.20;4.30;;;16.00;1.00;;;;;;6205767;23;20267;-90
2022/03/12 16:12:16;;;;;;;6.20;2.90;;;15.80;18.60;;;;;;6181898;23;20216;-90
2022/03/12 16:14:54;;;;;;;7.00;2.90;;;15.70;1.00;;;;;;6180643;23;20150;-91
2022/03/12 16:17:35;;;;;;;6.27;3.07;;;15.70;4.50;;;;;;6178770;23;20157;-89
2022/03/12 16:20:14;;;;;;;10.30;3.37;;;15.70;1.00;;;;;;6179464;23;20181;-90
2022/03/12 16:22:51;;;;;;;8.80;3.87;;;15.80;1.00;;;;;;6154221;23;20150;-90
2022/03/12 16:25:33;;;;;;;7.40;3.67;;;15.80;1.00;;;;;;6181880;23;20126;-90
2022/03/12 16:28:18;;;;;;;5.93;2.67;;;15.80;1.00;;;;;;6185690;22;20156;-89
2022/03/12 16:31:36;;;;;;;5.27;2.87;;;15.70;1.00;;;;;;6212006;22;20153;-89
2022/03/12 16:34:09;;;;;;;8.17;2.70;;;15.40;33.70;;;;;;6099014;23;20164;-88
2022/03/12 16:36:49;;;;;;;5.93;3.10;;;15.40;99.40;;;;;;6119775;23;20176;-89
2022/03/12 16:42:42;;;;;;;4.43;2.80;;;15.40;99.90;;;;;;6211157;23;20176;-90
2022/03/12 16:45:18;;;;;;;7.17;3.40;;;15.30;99.90;;;;;;6183426;23;20133;-89
2022/03/12 17:01:15;;;;;;;7.33;3.63;;;15.30;99.90;;;;;;6200806;22;20129;-92
2022/03/12 17:04:00;;;;;;;5.73;3.57;;;15.30;99.90;;;;;;6156029;23;20147;-92
2022/03/12 17:07:10;;;;;;;5.10;3.10;;;15.40;99.90;;;;;;6168935;23;20153;-91
2022/03/12 17:10:20;;;;;;;4.63;2.90;;;15.20;99.90;;;;;;6171165;23;20212;-92
2022/03/12 17:13:49;;;;;;;4.77;2.80;;;15.20;99.90;;;;;;6188616;23;20180;-92
2022/03/12 17:20:07;;;;;;;6.17;3.23;;;15.10;99.90;;;;;;6205832;22;20208;-92
2022/03/12 17:26:57;;;;;;;;;;;;;;;;;;;;;
2022/03/12 17:33:11;;;;;;;4.90;3.60;;;15.00;99.90;;;;;;6202646;22;20277;-90
2022/03/12 17:35:46;;;;;;;8.83;5.87;;;14.90;99.90;;;;;;6170411;23;20594;-90
2022/03/12 17:39:01;;;;;;;;;;;;;;;;;;;;;
2022/03/12 17:41:58;;;;;;;9.00;6.40;;;14.80;99.90;;;;;;6207153;22;20158;-90
2022/03/12 17:51:43;;;;;;;6.50;3.33;;;14.80;99.90;;;;;;6057700;23;20212;-91
2022/03/12 17:54:24;;;;;;;6.17;3.53;;;14.80;99.90;;;;;;6185288;23;20195;-91
2022/03/12 17:57:08;;;;;;;5.73;3.07;;;14.80;99.90;;;;;;6167732;23;20204;-91
2022/03/12 17:59:41;;;;;;;4.70;3.20;;;14.90;99.90;;;;;;6179385;23;20154;-91
2022/03/12 18:02:11;;;;;;;5.27;3.50;;;14.80;99.90;;;;;;6183619;23;20158;-91
2022/03/12 18:04:48;;;;;;;4.40;3.40;;;14.70;99.90;;;;;;6180442;23;20161;-90
2022/03/12 18:07:19;;;;;;;4.67;2.90;;;14.70;99.90;;;;;;6208738;23;20150;-89
2022/03/12 18:10:04;;;;;;;3.63;2.60;;;14.70;99.90;;;;;;6208325;23;20144;-88
2022/03/12 18:12:37;;;;;;;4.93;3.03;;;14.40;99.90;;;;;;6172287;23;20192;-89
2022/03/12 18:15:14;;;;;;;3.90;3.10;;;14.40;1.00;;;;;;6179117;23;20201;-89
2022/03/12 18:17:55;;;;;;;5.83;3.30;;;14.30;1.00;;;;;;6181478;23;20159;-88
2022/03/12 18:20:43;;;;;;;4.43;3.63;;;14.30;1.00;;;;;;6182577;23;20157;-88
2022/03/12 18:23:13;;;;;;;4.83;3.70;;;14.20;1.00;;;;;;6177280;23;20157;-89
2022/03/12 18:25:49;;;;;;;4.87;3.63;;;14.30;1.00;;;;;;6174522;23;20161;-92
2022/03/12 18:28:31;;;;;;;5.40;3.67;;;14.40;1.00;;;;;;6171958;23;20607;-92
2022/03/12 18:31:01;;;;;;;6.23;3.60;;;14.40;1.00;;;;;;6169764;23;20152;-91
2022/03/12 18:33:47;;;;;;;8.33;4.37;;;14.30;1.00;;;;;;6195250;23;20150;-88
2022/03/12 18:36:20;;;;;;;6.60;3.67;;;14.30;1.00;;;;;;6195402;23;20147;-89
2022/03/12 18:38:49;;;;;;;7.87;4.17;;;14.10;1.00;;;;;;6179408;22;20157;-87
2022/03/12 18:41:18;;;;;;;5.43;4.17;;;14.10;1.00;;;;;;6200914;22;20190;-90
2022/03/12 18:43:47;;;;;;;5.23;3.73;;;14.10;1.00;;;;;;6171767;23;20472;-91
2022/03/12 18:46:24;;;;;;;7.00;4.27;;;14.10;1.00;;;;;;6172220;23;20152;-90
2022/03/12 18:48:51;;;;;;;6.60;4.60;;;14.00;93.00;;;;;;6170046;23;20148;-89
2022/03/12 18:51:23;;;;;;;5.90;4.43;;;13.80;99.90;;;;;;6170025;23;20231;-91
2022/03/12 18:53:58;;;;;;;7.70;5.33;;;13.60;99.90;;;;;;6197353;23;20206;-90
2022/03/12 18:56:34;;;;;;;6.20;5.30;;;13.60;1.00;;;;;;6197902;23;20187;-91
2022/03/12 18:59:24;;;;;;;6.43;5.47;;;13.70;1.00;;;;;;6179494;23;20166;-90
2022/03/12 19:01:52;;;;;;;7.43;5.50;;;13.60;1.00;;;;;;6176849;23;20161;-90
2022/03/12 19:04:24;;;;;;;6.83;5.40;;;13.50;1.00;;;;;;6177662;23;20147;-91
2022/03/12 19:06:53;;;;;;;6.10;4.77;;;13.50;42.20;;;;;;6175423;23;20166;-91
2022/03/12 19:09:33;;;;;;;5.97;5.23;;;13.50;1.00;;;;;;6148961;23;20158;-91
2022/03/12 19:12:04;;;;;;;7.33;5.90;;;13.60;1.00;;;;;;6173588;23;20238;-91
2022/03/12 19:14:37;;;;;;;7.07;5.20;;;13.60;1.00;;;;;;6196564;23;20126;-91
2022/03/12 19:17:04;;;;;;;6.23;4.43;;;13.50;1.00;;;;;;6169293;23;20155;-92
2022/03/12 19:19:40;;;;;;;4.73;3.50;;;13.40;1.00;;;;;;6171045;23;20195;-90
2022/03/12 19:22:07;;;;;;;4.70;3.30;;;13.30;1.00;;;;;;6170133;23;20168;-91
2022/03/12 19:24:43;;;;;;;4.90;3.40;;;13.20;1.00;;;;;;6167963;23;20146;-93
2022/03/12 19:27:11;;;;;;;5.33;3.70;;;13.20;3.30;;;;;;6171979;23;20151;-92
2022/03/12 19:29:59;;;;;;;7.43;3.83;;;13.10;7.70;;;;;;6200404;23;20165;-92
2022/03/12 19:33:14;;;;;;;6.30;3.90;;;13.00;99.90;;;;;;6169111;23;20249;-94
2022/03/12 19:35:40;;;;;;;4.77;3.50;;;13.00;99.90;;;;;;6172319;23;20154;-90
2022/03/12 19:38:28;;;;;;;6.30;3.07;;;12.90;99.90;;;;;;6171549;23;20220;-90
2022/03/12 19:41:01;;;;;;;7.00;3.77;;;12.90;99.90;;;;;;6171687;23;20128;-91
2022/03/12 19:43:27;;;;;;;6.67;4.30;;;12.80;99.90;;;;;;6172766;23;20142;-91
2022/03/12 19:45:54;;;;;;;5.87;4.37;;;12.90;99.90;;;;;;6176689;23;20153;-91
2022/03/12 19:48:47;;;;;;;4.77;3.40;;;12.90;1.00;;;;;;6175232;23;20494;-91
2022/03/12 19:51:21;;;;;;;5.50;3.60;;;12.80;1.00;;;;;;6175347;23;20178;-92
2022/03/12 19:53:56;;;;;;;5.07;3.60;;;12.70;21.20;;;;;;6170430;23;20172;-91
2022/03/12 19:56:50;;;;;;;4.87;3.23;;;12.70;99.90;;;;;;6171486;23;20220;-91
2022/03/12 20:00:20;;;;;;;5.60;3.47;;;12.60;93.80;;;;;;6110996;23;20160;-91
2022/03/12 20:09:47;;;;;;;4.90;3.67;;;12.60;99.90;;;;;;6124376;23;20166;-91
2022/03/12 20:13:02;;;;;;;;;;;;;;;;;;;;;
2022/03/12 20:16:14;;;;;;;5.53;4.50;;;12.60;1.00;;;;;;6055460;23;20156;-90
2022/03/12 20:19:13;;;;;;;5.13;3.50;;;12.60;99.90;;;;;;6119807;23;20199;-92
2022/03/12 20:22:11;;;;;;;5.40;3.70;;;12.50;34.60;;;;;;6118395;23;20154;-91
2022/03/12 20:25:00;;;;;;;3.80;2.80;;;12.60;1.00;;;;;;6087003;23;20188;-92
2022/03/12 20:27:54;;;;;;;4.13;3.10;;;12.50;99.90;;;;;;6093600;23;20156;-92
2022/03/12 20:30:31;;;;;;;3.80;3.00;;;12.40;99.90;;;;;;6076889;23;20166;-92
2022/03/12 20:33:09;;;;;;;3.73;2.83;;;12.40;99.90;;;;;;6076430;23;20179;-91
2022/03/12 20:36:22;;;;;;;6.53;3.57;;;12.40;99.90;;;;;;6079456;23;20155;-92
2022/03/12 20:42:52;;;;;;;4.37;3.27;;;12.50;99.90;;;;;;6134323;23;20579;-92